Portada
METAR-TAF:

METAR-TAF

Aeroports :

Hurghada, Egipte

latitud: 27-09N, longitud: 033-43E, altitud: 16 m

Observació

L'informe es va fer fa 34 minuts, a les 21:00 UTC
Vent 12 kt del Nord-Oest
Temperatura 33°C
Humitat 28%
Pressió 1010 hPa
Visibilitat 10 km o més
sense núvols per sota de 1500 mi sense presència de cumulonimbus.

METAR: HEGN 012100Z 31012KT CAVOK 33/12 Q1010 NOSIG

Hora: 23:34 (21:34 UTC)

Pronòstic

L'informe es va fer fa 4 hores i 34 minuts, a les 17:00 UTC
Pronòstic vàlid del 01 a les 18 UTC al 02 a les 24 UTC
Vent 10 kt del Nord/Nord-Oest
Visibilitat 10 km o més
sense núvols per sota de 1500 mi sense presència de cumulonimbus.

TAF: HEGN 011700Z 0118/0224 33010KT CAVOK

Observacions i pronòstics meteorològics de més de 4000 aeroports (METAR i TAF).

Les estacions disponibles són els punts grocs i vermells al mapa.

Posi el ratolí al punt desitjat per veure el nom de l'estació.

Feu clic per veure les observacions i els pronòstics meteorològics.

Per canviar el mapa: feu clic els botons verds amb una creu de color negre per apropar; al botó verd amb un guió per allunyar la imatge; o en les fletxes verdes per a mapes adjacents.


METAR-TAF: